sensor_id;sensor_type;location;lat;lon;timestamp;temperature;humidity
40589;DHT22;26297;49.450;6.640;2023-10-08T00:02:27;17.20;99.90
40589;DHT22;26297;49.450;6.640;2023-10-08T00:05:35;17.30;99.90
40589;DHT22;26297;49.450;6.640;2023-10-08T00:08:40;17.30;99.90
40589;DHT22;26297;49.450;6.640;2023-10-08T00:12:06;17.30;99.90
40589;DHT22;26297;49.450;6.640;2023-10-08T00:15:12;17.30;99.90
40589;DHT22;26297;49.450;6.640;2023-10-08T00:18:15;17.30;99.90
40589;DHT22;26297;49.450;6.640;2023-10-08T00:21:22;17.20;99.90
40589;DHT22;26297;49.450;6.640;2023-10-08T00:24:31;17.30;99.90
40589;DHT22;26297;49.450;6.640;2023-10-08T00:27:36;17.30;99.90
40589;DHT22;26297;49.450;6.640;2023-10-08T00:30:41;17.30;99.90
40589;DHT22;26297;49.450;6.640;2023-10-08T00:33:45;17.30;99.90
40589;DHT22;26297;49.450;6.640;2023-10-08T00:36:48;17.20;99.90
40589;DHT22;26297;49.450;6.640;2023-10-08T00:39:52;17.30;99.90
40589;DHT22;26297;49.450;6.640;2023-10-08T00:43:00;17.20;99.90
40589;DHT22;26297;49.450;6.640;2023-10-08T00:49:39;17.30;99.90
40589;DHT22;26297;49.450;6.640;2023-10-08T00:52:50;17.20;99.90
40589;DHT22;26297;49.450;6.640;2023-10-08T00:56:04;17.10;99.90
40589;DHT22;26297;49.450;6.640;2023-10-08T00:59:16;17.10;99.90
40589;DHT22;26297;49.450;6.640;2023-10-08T01:02:27;17.10;99.90
40589;DHT22;26297;49.450;6.640;2023-10-08T01:05:31;17.20;99.90
40589;DHT22;26297;49.450;6.640;2023-10-08T01:08:49;17.20;99.90
40589;DHT22;26297;49.450;6.640;2023-10-08T01:12:21;17.10;99.90
40589;DHT22;26297;49.450;6.640;2023-10-08T01:15:57;17.10;99.90
40589;DHT22;26297;49.450;6.640;2023-10-08T01:23:19;17.10;99.90
40589;DHT22;26297;49.450;6.640;2023-10-08T01:26:26;17.20;99.90
40589;DHT22;26297;49.450;6.640;2023-10-08T01:29:32;17.20;99.90
40589;DHT22;26297;49.450;6.640;2023-10-08T01:32:35;17.10;99.90
40589;DHT22;26297;49.450;6.640;2023-10-08T01:35:41;17.20;99.90
40589;DHT22;26297;49.450;6.640;2023-10-08T01:38:45;17.20;99.90
40589;DHT22;26297;49.450;6.640;2023-10-08T01:41:52;17.10;99.90
40589;DHT22;26297;49.450;6.640;2023-10-08T01:44:56;17.20;99.90
40589;DHT22;26297;49.450;6.640;2023-10-08T01:47:59;17.10;99.90
40589;DHT22;26297;49.450;6.640;2023-10-08T01:51:02;17.10;99.90
40589;DHT22;26297;49.450;6.640;2023-10-08T01:54:11;17.10;99.90
40589;DHT22;26297;49.450;6.640;2023-10-08T01:57:15;17.10;99.90
40589;DHT22;26297;49.450;6.640;2023-10-08T02:00:20;17.10;99.90
40589;DHT22;26297;49.450;6.640;2023-10-08T02:03:23;17.10;99.90
40589;DHT22;26297;49.450;6.640;2023-10-08T02:06:26;17.10;99.90
40589;DHT22;26297;49.450;6.640;2023-10-08T02:09:30;17.10;99.90
40589;DHT22;26297;49.450;6.640;2023-10-08T02:12:38;17.10;99.90
40589;DHT22;26297;49.450;6.640;2023-10-08T02:15:51;17.10;99.90
40589;DHT22;26297;49.450;6.640;2023-10-08T02:18:59;17.10;99.90
40589;DHT22;26297;49.450;6.640;2023-10-08T02:22:02;17.10;99.90
40589;DHT22;26297;49.450;6.640;2023-10-08T02:25:08;17.10;99.90
40589;DHT22;26297;49.450;6.640;2023-10-08T02:28:14;17.10;99.90
40589;DHT22;26297;49.450;6.640;2023-10-08T02:31:23;17.10;99.90
40589;DHT22;26297;49.450;6.640;2023-10-08T02:34:26;17.10;99.90
40589;DHT22;26297;49.450;6.640;2023-10-08T02:37:29;17.10;99.90
40589;DHT22;26297;49.450;6.640;2023-10-08T02:40:33;17.00;99.90
40589;DHT22;26297;49.450;6.640;2023-10-08T02:43:38;17.00;99.90
40589;DHT22;26297;49.450;6.640;2023-10-08T02:46:49;17.00;99.90
40589;DHT22;26297;49.450;6.640;2023-10-08T02:49:52;17.00;99.90
40589;DHT22;26297;49.450;6.640;2023-10-08T02:52:56;17.00;99.90
40589;DHT22;26297;49.450;6.640;2023-10-08T02:56:05;17.00;99.90
40589;DHT22;26297;49.450;6.640;2023-10-08T02:59:15;17.00;99.90
40589;DHT22;26297;49.450;6.640;2023-10-08T03:02:18;17.00;99.90
40589;DHT22;26297;49.450;6.640;2023-10-08T03:05:21;17.00;99.90
40589;DHT22;26297;49.450;6.640;2023-10-08T03:08:27;17.00;99.90
40589;DHT22;26297;49.450;6.640;2023-10-08T03:11:39;17.00;99.90
40589;DHT22;26297;49.450;6.640;2023-10-08T03:14:46;17.00;99.90
40589;DHT22;26297;49.450;6.640;2023-10-08T03:18:18;17.00;99.90
40589;DHT22;26297;49.450;6.640;2023-10-08T03:21:23;17.00;99.90
40589;DHT22;26297;49.450;6.640;2023-10-08T03:24:47;17.00;99.90
40589;DHT22;26297;49.450;6.640;2023-10-08T03:27:51;17.00;99.90
40589;DHT22;26297;49.450;6.640;2023-10-08T03:30:57;17.00;99.90
40589;DHT22;26297;49.450;6.640;2023-10-08T03:34:07;17.00;99.90
40589;DHT22;26297;49.450;6.640;2023-10-08T03:37:10;17.00;99.90
40589;DHT22;26297;49.450;6.640;2023-10-08T03:40:15;17.00;99.90
40589;DHT22;26297;49.450;6.640;2023-10-08T03:43:45;17.00;99.90
40589;DHT22;26297;49.450;6.640;2023-10-08T03:47:10;17.00;99.90
40589;DHT22;26297;49.450;6.640;2023-10-08T03:50:14;17.00;99.90
40589;DHT22;26297;49.450;6.640;2023-10-08T03:53:20;17.00;99.90
40589;DHT22;26297;49.450;6.640;2023-10-08T03:56:26;17.00;99.90
40589;DHT22;26297;49.450;6.640;2023-10-08T03:59:33;16.90;99.90
40589;DHT22;26297;49.450;6.640;2023-10-08T04:02:37;16.90;99.90
40589;DHT22;26297;49.450;6.640;2023-10-08T04:05:44;16.90;99.90
40589;DHT22;26297;49.450;6.640;2023-10-08T04:09:02;16.90;99.90
40589;DHT22;26297;49.450;6.640;2023-10-08T04:12:11;16.90;99.90
40589;DHT22;26297;49.450;6.640;2023-10-08T04:15:21;16.90;99.90
40589;DHT22;26297;49.450;6.640;2023-10-08T04:18:24;16.90;99.90
40589;DHT22;26297;49.450;6.640;2023-10-08T04:21:28;16.90;99.90
40589;DHT22;26297;49.450;6.640;2023-10-08T04:24:31;16.90;99.90
40589;DHT22;26297;49.450;6.640;2023-10-08T04:27:41;16.90;99.90
40589;DHT22;26297;49.450;6.640;2023-10-08T04:30:45;17.00;99.90
40589;DHT22;26297;49.450;6.640;2023-10-08T04:33:50;16.90;99.90
40589;DHT22;26297;49.450;6.640;2023-10-08T04:36:55;16.90;99.90
40589;DHT22;26297;49.450;6.640;2023-10-08T04:40:04;17.00;99.90
40589;DHT22;26297;49.450;6.640;2023-10-08T04:43:08;16.90;99.90
40589;DHT22;26297;49.450;6.640;2023-10-08T04:46:13;17.00;99.90
40589;DHT22;26297;49.450;6.640;2023-10-08T04:49:28;16.90;99.90
40589;DHT22;26297;49.450;6.640;2023-10-08T04:52:31;16.90;99.90
40589;DHT22;26297;49.450;6.640;2023-10-08T04:55:37;16.90;99.90
40589;DHT22;26297;49.450;6.640;2023-10-08T04:58:50;16.90;99.90
40589;DHT22;26297;49.450;6.640;2023-10-08T05:01:55;16.90;99.90
40589;DHT22;26297;49.450;6.640;2023-10-08T05:05:23;16.90;99.90
40589;DHT22;26297;49.450;6.640;2023-10-08T05:08:26;16.90;99.90
40589;DHT22;26297;49.450;6.640;2023-10-08T05:11:39;16.90;99.90
40589;DHT22;26297;49.450;6.640;2023-10-08T05:14:54;16.90;99.90
40589;DHT22;26297;49.450;6.640;2023-10-08T05:18:19;16.90;99.90
40589;DHT22;26297;49.450;6.640;2023-10-08T05:21:34;16.90;99.90
40589;DHT22;26297;49.450;6.640;2023-10-08T05:24:55;16.90;99.90
40589;DHT22;26297;49.450;6.640;2023-10-08T05:28:11;16.90;99.90
40589;DHT22;26297;49.450;6.640;2023-10-08T05:31:28;16.90;99.90
40589;DHT22;26297;49.450;6.640;2023-10-08T05:34:58;16.90;99.90
40589;DHT22;26297;49.450;6.640;2023-10-08T05:38:22;16.90;99.90
40589;DHT22;26297;49.450;6.640;2023-10-08T05:41:29;16.90;99.90
40589;DHT22;26297;49.450;6.640;2023-10-08T05:44:53;16.90;99.90
40589;DHT22;26297;49.450;6.640;2023-10-08T05:48:12;16.90;99.90
40589;DHT22;26297;49.450;6.640;2023-10-08T05:51:18;16.90;99.90
40589;DHT22;26297;49.450;6.640;2023-10-08T05:54:37;16.90;99.90
40589;DHT22;26297;49.450;6.640;2023-10-08T05:57:52;16.90;99.90
40589;DHT22;26297;49.450;6.640;2023-10-08T06:01:16;16.90;99.90
40589;DHT22;26297;49.450;6.640;2023-10-08T06:04:39;16.90;99.90
40589;DHT22;26297;49.450;6.640;2023-10-08T06:07:56;16.80;99.90
40589;DHT22;26297;49.450;6.640;2023-10-08T06:11:13;16.80;99.90
40589;DHT22;26297;49.450;6.640;2023-10-08T06:14:30;16.80;99.90
40589;DHT22;26297;49.450;6.640;2023-10-08T06:17:45;16.80;99.90
40589;DHT22;26297;49.450;6.640;2023-10-08T06:21:07;16.90;99.90
40589;DHT22;26297;49.450;6.640;2023-10-08T06:24:24;16.80;99.90
40589;DHT22;26297;49.450;6.640;2023-10-08T06:27:29;16.80;99.90
40589;DHT22;26297;49.450;6.640;2023-10-08T06:30:35;16.80;99.90
40589;DHT22;26297;49.450;6.640;2023-10-08T06:33:39;16.80;99.90
40589;DHT22;26297;49.450;6.640;2023-10-08T06:36:43;16.70;99.90
40589;DHT22;26297;49.450;6.640;2023-10-08T06:39:46;16.80;99.90
40589;DHT22;26297;49.450;6.640;2023-10-08T06:42:52;16.80;99.90
40589;DHT22;26297;49.450;6.640;2023-10-08T06:45:59;16.80;99.90
40589;DHT22;26297;49.450;6.640;2023-10-08T06:49:03;16.80;99.90
40589;DHT22;26297;49.450;6.640;2023-10-08T06:52:08;16.80;99.90
40589;DHT22;26297;49.450;6.640;2023-10-08T06:55:14;16.80;99.90
40589;DHT22;26297;49.450;6.640;2023-10-08T06:58:20;16.80;99.90
40589;DHT22;26297;49.450;6.640;2023-10-08T07:01:23;16.80;99.90
40589;DHT22;26297;49.450;6.640;2023-10-08T07:04:41;16.80;99.90
40589;DHT22;26297;49.450;6.640;2023-10-08T07:07:47;16.80;99.90
40589;DHT22;26297;49.450;6.640;2023-10-08T07:10:53;16.90;99.90
40589;DHT22;26297;49.450;6.640;2023-10-08T07:13:56;16.80;99.90
40589;DHT22;26297;49.450;6.640;2023-10-08T07:17:01;16.80;99.90
40589;DHT22;26297;49.450;6.640;2023-10-08T07:20:07;16.80;99.90
40589;DHT22;26297;49.450;6.640;2023-10-08T07:27:42;16.80;99.90
40589;DHT22;26297;49.450;6.640;2023-10-08T07:30:46;16.80;99.90
40589;DHT22;26297;49.450;6.640;2023-10-08T07:33:54;16.80;99.90
40589;DHT22;26297;49.450;6.640;2023-10-08T07:37:23;16.80;99.90
40589;DHT22;26297;49.450;6.640;2023-10-08T07:40:29;16.80;99.90
40589;DHT22;26297;49.450;6.640;2023-10-08T07:43:34;16.80;99.90
40589;DHT22;26297;49.450;6.640;2023-10-08T07:46:41;16.80;99.90
40589;DHT22;26297;49.450;6.640;2023-10-08T07:50:07;16.80;99.90
40589;DHT22;26297;49.450;6.640;2023-10-08T07:53:14;16.80;99.90
40589;DHT22;26297;49.450;6.640;2023-10-08T07:56:21;16.80;99.90
40589;DHT22;26297;49.450;6.640;2023-10-08T07:59:25;16.90;99.90
40589;DHT22;26297;49.450;6.640;2023-10-08T08:02:28;16.90;99.90
40589;DHT22;26297;49.450;6.640;2023-10-08T08:05:38;16.80;99.90
40589;DHT22;26297;49.450;6.640;2023-10-08T08:08:43;16.80;99.90
40589;DHT22;26297;49.450;6.640;2023-10-08T08:11:47;16.90;99.90
40589;DHT22;26297;49.450;6.640;2023-10-08T08:14:53;16.80;99.90
40589;DHT22;26297;49.450;6.640;2023-10-08T08:18:00;16.80;99.90
40589;DHT22;26297;49.450;6.640;2023-10-08T08:21:10;16.90;99.90
40589;DHT22;26297;49.450;6.640;2023-10-08T08:24:17;16.90;99.90
40589;DHT22;26297;49.450;6.640;2023-10-08T08:27:31;16.80;99.90
40589;DHT22;26297;49.450;6.640;2023-10-08T08:30:34;16.80;99.90
40589;DHT22;26297;49.450;6.640;2023-10-08T08:33:48;16.80;99.90
40589;DHT22;26297;49.450;6.640;2023-10-08T08:37:17;16.90;99.90
40589;DHT22;26297;49.450;6.640;2023-10-08T08:40:42;16.90;99.90
40589;DHT22;26297;49.450;6.640;2023-10-08T08:43:51;16.90;99.90
40589;DHT22;26297;49.450;6.640;2023-10-08T08:47:03;16.90;99.90
40589;DHT22;26297;49.450;6.640;2023-10-08T08:50:08;16.90;99.90
40589;DHT22;26297;49.450;6.640;2023-10-08T08:53:12;16.90;99.90
40589;DHT22;26297;49.450;6.640;2023-10-08T08:56:21;16.90;99.90
40589;DHT22;26297;49.450;6.640;2023-10-08T08:59:31;16.90;99.90
40589;DHT22;26297;49.450;6.640;2023-10-08T09:02:38;16.90;99.90
40589;DHT22;26297;49.450;6.640;2023-10-08T09:06:01;16.90;99.90
40589;DHT22;26297;49.450;6.640;2023-10-08T09:09:36;17.00;99.90
40589;DHT22;26297;49.450;6.640;2023-10-08T09:12:53;16.90;99.90
40589;DHT22;26297;49.450;6.640;2023-10-08T09:16:17;17.00;99.90
40589;DHT22;26297;49.450;6.640;2023-10-08T09:19:21;17.00;99.90
40589;DHT22;26297;49.450;6.640;2023-10-08T10:40:39;17.30;99.90
40589;DHT22;26297;49.450;6.640;2023-10-08T10:43:43;17.30;99.90
40589;DHT22;26297;49.450;6.640;2023-10-08T10:46:56;17.30;99.90
40589;DHT22;26297;49.450;6.640;2023-10-08T10:50:25;17.30;99.90
40589;DHT22;26297;49.450;6.640;2023-10-08T10:53:36;17.30;99.90
40589;DHT22;26297;49.450;6.640;2023-10-08T10:56:58;17.40;99.90
40589;DHT22;26297;49.450;6.640;2023-10-08T11:00:09;17.40;99.90
40589;DHT22;26297;49.450;6.640;2023-10-08T11:03:32;17.40;99.90
40589;DHT22;26297;49.450;6.640;2023-10-08T11:06:38;17.50;99.90
40589;DHT22;26297;49.450;6.640;2023-10-08T11:09:42;17.50;99.90
40589;DHT22;26297;49.450;6.640;2023-10-08T11:12:47;17.50;99.90
40589;DHT22;26297;49.450;6.640;2023-10-08T11:15:56;17.60;99.90
40589;DHT22;26297;49.450;6.640;2023-10-08T11:19:00;17.60;99.90
40589;DHT22;26297;49.450;6.640;2023-10-08T11:22:09;17.70;99.90
40589;DHT22;26297;49.450;6.640;2023-10-08T11:25:25;17.70;99.90
40589;DHT22;26297;49.450;6.640;2023-10-08T11:28:37;17.70;99.90
40589;DHT22;26297;49.450;6.640;2023-10-08T11:31:46;17.70;99.90
40589;DHT22;26297;49.450;6.640;2023-10-08T11:34:54;17.70;99.90
40589;DHT22;26297;49.450;6.640;2023-10-08T11:37:59;17.70;99.90
40589;DHT22;26297;49.450;6.640;2023-10-08T11:41:17;17.70;99.90
40589;DHT22;26297;49.450;6.640;2023-10-08T11:44:23;17.80;99.90
40589;DHT22;26297;49.450;6.640;2023-10-08T11:47:33;17.80;99.90
40589;DHT22;26297;49.450;6.640;2023-10-08T11:50:38;17.90;99.90
40589;DHT22;26297;49.450;6.640;2023-10-08T11:53:44;17.80;99.90
40589;DHT22;26297;49.450;6.640;2023-10-08T11:56:47;17.90;99.90
40589;DHT22;26297;49.450;6.640;2023-10-08T11:59:50;17.90;99.90
40589;DHT22;26297;49.450;6.640;2023-10-08T12:02:59;17.90;99.90
40589;DHT22;26297;49.450;6.640;2023-10-08T12:06:04;17.90;99.90
40589;DHT22;26297;49.450;6.640;2023-10-08T12:09:08;17.90;99.90
40589;DHT22;26297;49.450;6.640;2023-10-08T12:12:16;18.00;99.90
40589;DHT22;26297;49.450;6.640;2023-10-08T12:15:24;18.00;99.90
40589;DHT22;26297;49.450;6.640;2023-10-08T12:18:36;18.00;99.90
40589;DHT22;26297;49.450;6.640;2023-10-08T12:21:44;18.00;99.90
40589;DHT22;26297;49.450;6.640;2023-10-08T12:24:50;18.10;99.90
40589;DHT22;26297;49.450;6.640;2023-10-08T12:27:54;18.10;99.90
40589;DHT22;26297;49.450;6.640;2023-10-08T12:30:56;18.10;99.90
40589;DHT22;26297;49.450;6.640;2023-10-08T12:34:00;18.20;99.90
40589;DHT22;26297;49.450;6.640;2023-10-08T12:37:03;18.20;99.90
40589;DHT22;26297;49.450;6.640;2023-10-08T12:40:09;18.20;99.90
40589;DHT22;26297;49.450;6.640;2023-10-08T12:43:25;18.20;99.90
40589;DHT22;26297;49.450;6.640;2023-10-08T12:46:31;18.20;99.90
40589;DHT22;26297;49.450;6.640;2023-10-08T12:49:36;18.20;99.90
40589;DHT22;26297;49.450;6.640;2023-10-08T12:52:40;18.20;99.90
40589;DHT22;26297;49.450;6.640;2023-10-08T12:55:50;18.20;99.90
40589;DHT22;26297;49.450;6.640;2023-10-08T12:58:56;18.20;99.90
40589;DHT22;26297;49.450;6.640;2023-10-08T13:02:02;18.10;99.90
40589;DHT22;26297;49.450;6.640;2023-10-08T13:05:13;18.10;99.90
40589;DHT22;26297;49.450;6.640;2023-10-08T13:08:19;18.10;99.90
40589;DHT22;26297;49.450;6.640;2023-10-08T13:11:29;18.20;99.90
40589;DHT22;26297;49.450;6.640;2023-10-08T13:14:37;18.20;99.90
40589;DHT22;26297;49.450;6.640;2023-10-08T13:17:48;18.20;99.90
40589;DHT22;26297;49.450;6.640;2023-10-08T13:20:54;18.20;99.90
40589;DHT22;26297;49.450;6.640;2023-10-08T13:23:58;18.20;99.90
40589;DHT22;26297;49.450;6.640;2023-10-08T13:27:06;18.20;99.90
40589;DHT22;26297;49.450;6.640;2023-10-08T13:30:10;18.20;99.90
40589;DHT22;26297;49.450;6.640;2023-10-08T13:33:21;18.20;99.90
40589;DHT22;26297;49.450;6.640;2023-10-08T13:36:29;18.20;99.90
40589;DHT22;26297;49.450;6.640;2023-10-08T13:39:53;18.20;99.90
40589;DHT22;26297;49.450;6.640;2023-10-08T13:43:02;18.20;99.90
40589;DHT22;26297;49.450;6.640;2023-10-08T13:46:07;18.30;99.90
40589;DHT22;26297;49.450;6.640;2023-10-08T13:49:17;18.30;99.90
40589;DHT22;26297;49.450;6.640;2023-10-08T13:52:24;18.20;99.90
40589;DHT22;26297;49.450;6.640;2023-10-08T13:55:29;18.30;99.90
40589;DHT22;26297;49.450;6.640;2023-10-08T13:58:35;18.30;99.90
40589;DHT22;26297;49.450;6.640;2023-10-08T14:01:44;18.40;99.90
40589;DHT22;26297;49.450;6.640;2023-10-08T14:04:57;18.40;99.90
40589;DHT22;26297;49.450;6.640;2023-10-08T14:08:01;18.40;99.90
40589;DHT22;26297;49.450;6.640;2023-10-08T14:11:06;18.40;99.90
40589;DHT22;26297;49.450;6.640;2023-10-08T14:14:11;18.40;99.90
40589;DHT22;26297;49.450;6.640;2023-10-08T14:17:22;18.50;99.90
40589;DHT22;26297;49.450;6.640;2023-10-08T14:20:45;18.50;99.90
40589;DHT22;26297;49.450;6.640;2023-10-08T14:23:53;18.40;99.90
40589;DHT22;26297;49.450;6.640;2023-10-08T14:26:56;18.40;99.90
40589;DHT22;26297;49.450;6.640;2023-10-08T14:30:10;18.30;99.90
40589;DHT22;26297;49.450;6.640;2023-10-08T14:33:24;18.20;99.90
40589;DHT22;26297;49.450;6.640;2023-10-08T14:36:29;18.10;99.90
40589;DHT22;26297;49.450;6.640;2023-10-08T14:40:08;18.10;99.90
40589;DHT22;26297;49.450;6.640;2023-10-08T14:44:00;18.20;99.90
40589;DHT22;26297;49.450;6.640;2023-10-08T14:47:04;18.20;99.90
40589;DHT22;26297;49.450;6.640;2023-10-08T14:50:08;18.20;99.90
40589;DHT22;26297;49.450;6.640;2023-10-08T14:53:19;18.10;99.90
40589;DHT22;26297;49.450;6.640;2023-10-08T14:56:35;18.10;99.90
40589;DHT22;26297;49.450;6.640;2023-10-08T14:59:40;18.10;99.90
40589;DHT22;26297;49.450;6.640;2023-10-08T15:03:11;18.00;99.90
40589;DHT22;26297;49.450;6.640;2023-10-08T15:06:42;17.90;99.90
40589;DHT22;26297;49.450;6.640;2023-10-08T15:09:47;17.90;99.90
40589;DHT22;26297;49.450;6.640;2023-10-08T15:13:12;17.90;99.90
40589;DHT22;26297;49.450;6.640;2023-10-08T15:20:19;17.80;99.90
40589;DHT22;26297;49.450;6.640;2023-10-08T15:23:36;17.80;99.90
40589;DHT22;26297;49.450;6.640;2023-10-08T15:26:48;17.80;99.90
40589;DHT22;26297;49.450;6.640;2023-10-08T15:30:04;17.80;99.90
40589;DHT22;26297;49.450;6.640;2023-10-08T15:33:32;17.80;99.90
40589;DHT22;26297;49.450;6.640;2023-10-08T15:36:53;17.80;99.90
40589;DHT22;26297;49.450;6.640;2023-10-08T15:44:12;17.80;99.90
40589;DHT22;26297;49.450;6.640;2023-10-08T15:47:21;17.80;99.90
40589;DHT22;26297;49.450;6.640;2023-10-08T15:50:45;17.80;99.90
40589;DHT22;26297;49.450;6.640;2023-10-08T15:54:03;17.90;99.90
40589;DHT22;26297;49.450;6.640;2023-10-08T15:57:15;17.80;99.90
40589;DHT22;26297;49.450;6.640;2023-10-08T16:00:57;17.80;99.90
40589;DHT22;26297;49.450;6.640;2023-10-08T16:04:08;17.80;99.90
40589;DHT22;26297;49.450;6.640;2023-10-08T16:07:16;17.80;99.90
40589;DHT22;26297;49.450;6.640;2023-10-08T16:10:34;17.80;99.90
40589;DHT22;26297;49.450;6.640;2023-10-08T16:14:13;17.80;99.90
40589;DHT22;26297;49.450;6.640;2023-10-08T16:18:00;17.70;99.90
40589;DHT22;26297;49.450;6.640;2023-10-08T16:25:28;17.70;99.90
40589;DHT22;26297;49.450;6.640;2023-10-08T18:39:56;17.70;99.90
40589;DHT22;26297;49.450;6.640;2023-10-08T18:44:00;17.70;99.90
40589;DHT22;26297;49.450;6.640;2023-10-08T18:47:23;17.70;99.90
40589;DHT22;26297;49.450;6.640;2023-10-08T18:50:40;17.70;99.90
40589;DHT22;26297;49.450;6.640;2023-10-08T18:57:58;17.70;99.90
40589;DHT22;26297;49.450;6.640;2023-10-08T19:01:23;17.70;99.90
40589;DHT22;26297;49.450;6.640;2023-10-08T19:04:47;17.70;99.90
40589;DHT22;26297;49.450;6.640;2023-10-08T19:08:17;17.70;99.90
40589;DHT22;26297;49.450;6.640;2023-10-08T19:11:53;17.70;99.90
40589;DHT22;26297;49.450;6.640;2023-10-08T19:15:11;17.70;99.90
40589;DHT22;26297;49.450;6.640;2023-10-08T19:18:38;17.70;99.90
40589;DHT22;26297;49.450;6.640;2023-10-08T19:22:04;17.70;99.90
40589;DHT22;26297;49.450;6.640;2023-10-08T19:25:21;17.70;99.90
40589;DHT22;26297;49.450;6.640;2023-10-08T19:28:39;17.70;99.90
40589;DHT22;26297;49.450;6.640;2023-10-08T19:32:05;17.70;99.90
40589;DHT22;26297;49.450;6.640;2023-10-08T19:35:24;17.60;99.90
40589;DHT22;26297;49.450;6.640;2023-10-08T19:38:38;17.70;99.90
40589;DHT22;26297;49.450;6.640;2023-10-08T19:41:49;17.70;99.90
40589;DHT22;26297;49.450;6.640;2023-10-08T19:44:56;17.60;99.90
40589;DHT22;26297;49.450;6.640;2023-10-08T19:48:13;17.60;99.90
40589;DHT22;26297;49.450;6.640;2023-10-08T19:51:31;17.60;99.90
40589;DHT22;26297;49.450;6.640;2023-10-08T19:54:42;17.60;99.90
40589;DHT22;26297;49.450;6.640;2023-10-08T19:58:22;17.60;99.90
40589;DHT22;26297;49.450;6.640;2023-10-08T20:02:05;17.60;99.90
40589;DHT22;26297;49.450;6.640;2023-10-08T20:06:02;17.60;99.90
40589;DHT22;26297;49.450;6.640;2023-10-08T20:09:35;17.60;99.90
40589;DHT22;26297;49.450;6.640;2023-10-08T20:12:48;17.60;99.90
40589;DHT22;26297;49.450;6.640;2023-10-08T20:16:27;17.60;99.90
40589;DHT22;26297;49.450;6.640;2023-10-08T20:19:35;17.50;99.90
40589;DHT22;26297;49.450;6.640;2023-10-08T20:22:51;17.60;99.90
40589;DHT22;26297;49.450;6.640;2023-10-08T20:26:26;17.60;99.90
40589;DHT22;26297;49.450;6.640;2023-10-08T20:30:01;17.60;99.90
40589;DHT22;26297;49.450;6.640;2023-10-08T20:33:16;17.60;99.90
40589;DHT22;26297;49.450;6.640;2023-10-08T20:36:37;17.60;99.90
40589;DHT22;26297;49.450;6.640;2023-10-08T20:39:52;17.60;99.90
40589;DHT22;26297;49.450;6.640;2023-10-08T20:43:00;17.60;99.90
40589;DHT22;26297;49.450;6.640;2023-10-08T20:46:06;17.60;99.90
40589;DHT22;26297;49.450;6.640;2023-10-08T20:49:25;17.60;99.90
40589;DHT22;26297;49.450;6.640;2023-10-08T20:52:56;17.60;99.90
40589;DHT22;26297;49.450;6.640;2023-10-08T20:56:07;17.60;99.90
40589;DHT22;26297;49.450;6.640;2023-10-08T20:59:18;17.60;99.90
40589;DHT22;26297;49.450;6.640;2023-10-08T21:02:35;17.50;99.90
40589;DHT22;26297;49.450;6.640;2023-10-08T21:05:49;17.50;99.90
40589;DHT22;26297;49.450;6.640;2023-10-08T21:08:55;17.60;99.90
40589;DHT22;26297;49.450;6.640;2023-10-08T21:12:20;17.50;99.90
40589;DHT22;26297;49.450;6.640;2023-10-08T21:15:35;17.50;99.90
40589;DHT22;26297;49.450;6.640;2023-10-08T21:18:50;17.50;99.90
40589;DHT22;26297;49.450;6.640;2023-10-08T21:22:05;17.60;99.90
40589;DHT22;26297;49.450;6.640;2023-10-08T21:25:18;17.60;99.90
40589;DHT22;26297;49.450;6.640;2023-10-08T21:28:25;17.60;99.90
40589;DHT22;26297;49.450;6.640;2023-10-08T21:31:28;17.50;99.90
40589;DHT22;26297;49.450;6.640;2023-10-08T21:34:36;17.60;99.90
40589;DHT22;26297;49.450;6.640;2023-10-08T21:37:46;17.60;99.90
40589;DHT22;26297;49.450;6.640;2023-10-08T21:40:59;17.50;99.90
40589;DHT22;26297;49.450;6.640;2023-10-08T21:44:03;17.50;99.90
40589;DHT22;26297;49.450;6.640;2023-10-08T21:47:12;17.50;99.90
40589;DHT22;26297;49.450;6.640;2023-10-08T21:50:19;17.50;99.90
40589;DHT22;26297;49.450;6.640;2023-10-08T21:53:31;17.50;99.90
40589;DHT22;26297;49.450;6.640;2023-10-08T21:56:49;17.50;99.90
40589;DHT22;26297;49.450;6.640;2023-10-08T22:03:38;17.50;99.90
40589;DHT22;26297;49.450;6.640;2023-10-08T22:06:46;17.50;99.90
40589;DHT22;26297;49.450;6.640;2023-10-08T22:09:50;17.50;99.90
40589;DHT22;26297;49.450;6.640;2023-10-08T22:12:56;17.50;99.90
40589;DHT22;26297;49.450;6.640;2023-10-08T22:16:08;17.50;99.90
40589;DHT22;26297;49.450;6.640;2023-10-08T22:19:21;17.50;99.90
40589;DHT22;26297;49.450;6.640;2023-10-08T22:22:30;17.40;99.90
40589;DHT22;26297;49.450;6.640;2023-10-08T22:25:51;17.50;99.90
40589;DHT22;26297;49.450;6.640;2023-10-08T22:29:01;17.50;99.90
40589;DHT22;26297;49.450;6.640;2023-10-08T22:32:17;17.50;99.90
40589;DHT22;26297;49.450;6.640;2023-10-08T22:35:24;17.50;99.90
40589;DHT22;26297;49.450;6.640;2023-10-08T22:38:33;17.50;99.90
40589;DHT22;26297;49.450;6.640;2023-10-08T22:41:45;17.50;99.90
40589;DHT22;26297;49.450;6.640;2023-10-08T22:44:48;17.50;99.90
40589;DHT22;26297;49.450;6.640;2023-10-08T22:48:03;17.50;99.90
40589;DHT22;26297;49.450;6.640;2023-10-08T22:51:14;17.50;99.90
40589;DHT22;26297;49.450;6.640;2023-10-08T22:54:37;17.40;99.90
40589;DHT22;26297;49.450;6.640;2023-10-08T22:57:40;17.50;99.90
40589;DHT22;26297;49.450;6.640;2023-10-08T23:00:46;17.50;99.90
40589;DHT22;26297;49.450;6.640;2023-10-08T23:03:55;17.40;99.90
40589;DHT22;26297;49.450;6.640;2023-10-08T23:07:04;17.40;99.90
40589;DHT22;26297;49.450;6.640;2023-10-08T23:10:10;17.40;99.90
40589;DHT22;26297;49.450;6.640;2023-10-08T23:13:17;17.40;99.90
40589;DHT22;26297;49.450;6.640;2023-10-08T23:16:25;17.40;99.90
40589;DHT22;26297;49.450;6.640;2023-10-08T23:19:32;17.40;99.90
40589;DHT22;26297;49.450;6.640;2023-10-08T23:22:35;17.40;99.90
40589;DHT22;26297;49.450;6.640;2023-10-08T23:25:39;17.40;99.90
40589;DHT22;26297;49.450;6.640;2023-10-08T23:28:42;17.40;99.90
40589;DHT22;26297;49.450;6.640;2023-10-08T23:31:46;17.40;99.90
40589;DHT22;26297;49.450;6.640;2023-10-08T23:34:53;17.40;99.90
40589;DHT22;26297;49.450;6.640;2023-10-08T23:38:08;17.40;99.90
40589;DHT22;26297;49.450;6.640;2023-10-08T23:41:22;17.40;99.90
40589;DHT22;26297;49.450;6.640;2023-10-08T23:44:38;17.40;99.90
40589;DHT22;26297;49.450;6.640;2023-10-08T23:47:58;17.40;99.90
40589;DHT22;26297;49.450;6.640;2023-10-08T23:51:23;17.40;99.90
40589;DHT22;26297;49.450;6.640;2023-10-08T23:54:27;17.40;99.90
40589;DHT22;26297;49.450;6.640;2023-10-08T23:57:36;17.40;99.90
